Hlavní strana
METAR-TAF:

METAR-TAF

Letiště :

Smyrna, Tennessee, Spojené státy americké

zeměpisná šířka: 36-01N, zeměpisná délka: 086-31W, výška: 166 m

Aktuální stav počasí

Zpráva byla vytvořena před 49 minutami, v 23:56 UTC
Bezvětří
Teplota 6°C
Vlhkost vzduchu 81%
Tlak 1025 hPa
Viditelnost: 16.1 km
Jasno

METAR: KMQY 072356Z 00000KT 10SM CLR 06/03 A3028 RMK AO2 SLP264 60001 T00610033 10133 20056 53001

Čas: 18:45 (00:45 UTC)

Předpověď počasí

Zpráva byla vytvořena před 1 hodinou a 25 minutami, v 23:20 UTC
Předpověď platná od 08 v 00 UTC do 08 v 24 UTC
vítr z různých směrů 4 kt
Viditelnost: 10 km
Polojasno ve výšce 4500 ft
Dočasný
od 08 v 06 UTC do 08 v 10 UTC
Viditelnost: 6.4 km
kouřmo, zákal
Od 08 v 1400 UTC
Jižní vítr 10 kt s nárazy do 18 kt
Viditelnost: 10 km
Oblačno až skoro zataženo ve výšce 4500 ft

TAF: KMQY 072320Z 0800/0824 VRB04KT P6SM SCT045 TEMPO 0806/0810 4SM BR HZ FM081400 18010G18KT P6SM BKN045

Stav a předpovědi počasí z více než 4 000 letišť (zprávy METAR a TAF).

Červené a žluté tečky na mapě představují dostupné meteorologické stanice.

Když kurzor umístíte na tečku, zobrazí se název stanice.

Pak kliknutím zobrazíte stav a předpověď počasí.

Chcete-li změnit mapu, kliknutím na zelené tlačítko se znaménkem +mapu přiblížíte, kliknutím na zelené tlačítko se znaménkem – mapu oddálíte a kliknutím na zelené šipky přejdete na sousední mapy.


METAR-TAF: